Frem Nordica — OVIL2 — position and weather

sailwx.info

Track history (hours):
 
Tides and Currents Weather Stations Pressure Air Temp Water Temp Dewpoint Dewpoint Depression Visibility Wind Speed Wind Dir Waves Ship Positions

Frem Nordica

Last reported at 2017-Feb-15 08:24 UTC. Time now 2017-Feb-24 06:01 UTC.
Position N 53°53' E 014°17'.
Warning: this ship's position is 8 days out of date.

Length 79 m; draft 2.7 m.

Type: Ship. MMSI: 220439000.

Date/timePositionNaut miles runAvg speedWind from/ knotsBaromVisibWave heightAir tempDewpointWater temp
2017-Feb-15 08:24N 53°53' E 014°17'47 1.1
2017-Feb-13 12:25N 54°36' E 013°42'8 9.2
2017-Feb-13 11:30N 54°42' E 013°34'10 8.8
2017-Feb-13 10:23N 54°44' E 013°17'8 9.1
2017-Feb-13 09:27N 54°44' E 013°02'8 9.0
2017-Feb-13 08:33N 54°45' E 012°48'9 8.8
2017-Feb-13 07:33N 54°41' E 012°35'12 8.7
2017-Feb-13 06:07N 54°33' E 012°18'5 8.9
2017-Feb-13 05:33N 54°28' E 012°15'8 7.9
2017-Feb-13 04:33N 54°24' E 012°04'9 8.7
2017-Feb-13 03:33N 54°25' E 011°49'11 8.6
2017-Feb-13 02:14N 54°29' E 011°31'4 5.3
2017-Feb-13 01:33N 54°31' E 011°25'7 7.5
2017-Feb-13 00:33N 54°34' E 011°14'8 7.6
2017-Feb-12 23:33N 54°35' E 011°01'7 7.4
2017-Feb-12 22:33N 54°35' E 010°48'62 6.2
2017-Feb-12 12:33N 54°01' E 009°18'7 7.4
2017-Feb-12 11:33N 53°55' E 009°11'2 1.9
2017-Feb-12 10:34N 53°53' E 009°09'6 6.1
2017-Feb-12 09:34N 53°51' E 008°59'7 6.9
2017-Feb-12 08:33N 53°50' E 008°47'3 3.3
2017-Feb-12 07:33N 53°52' E 008°43'1 0.0
2017-Feb-11 09:33N 53°51' E 008°43'0 0.0
2017-Feb-10 20:08N 53°51' E 008°43'0 0.0
2017-Feb-10 09:14N 53°51' E 008°43'0 0.0
2017-Feb-10 07:32N 53°51' E 008°43'0 0.0
2017-Feb-09 19:10N 53°51' E 008°43'0 0.0
2017-Feb-09 18:32N 53°51' E 008°43'0 0.0
2017-Feb-09 16:32N 53°51' E 008°43'0 0.0
2017-Feb-09 15:26N 53°51' E 008°43'0 0.0
2017-Feb-09 07:14N 53°51' E 008°43'0 0.0
2017-Feb-09 06:20N 53°51' E 008°43'0 0.0
2017-Feb-09 00:03N 53°51' E 008°43'0 0.0
2017-Feb-08 21:33N 53°51' E 008°43'0 0.0
2017-Feb-08 17:21N 53°51' E 008°43'0 0.0
2017-Feb-08 16:09N 53°51' E 008°43'0 0.0
2017-Feb-08 14:27N 53°51' E 008°43'0 0.0
2017-Feb-08 13:28N 53°51' E 008°43'0 0.0
2017-Feb-08 11:33N 53°51' E 008°43'0 0.0
2017-Feb-08 10:33N 53°51' E 008°43'0 0.0
2017-Feb-08 09:28N 53°51' E 008°43'0 0.0
2017-Feb-08 08:03N 53°51' E 008°43'0 0.0
2017-Feb-08 07:10N 53°51' E 008°43'0 0.0
2017-Feb-08 06:22N 53°51' E 008°43'0 0.0
2017-Feb-08 05:23N 53°51' E 008°43'0 0.0
2017-Feb-08 04:17N 53°51' E 008°43'0 0.0
2017-Feb-08 03:16N 53°51' E 008°43'0 0.0
2017-Feb-08 02:17N 53°51' E 008°43'0 0.0
2017-Feb-08 01:16N 53°51' E 008°43'0 0.0
2017-Feb-08 00:29N 53°51' E 008°43'0 0.0
2017-Feb-07 23:28N 53°51' E 008°43'0 0.0
2017-Feb-07 22:30N 53°51' E 008°43'0 0.0
2017-Feb-07 21:28N 53°51' E 008°43'0 0.0
2017-Feb-07 20:30N 53°51' E 008°43'0 0.0
2017-Feb-07 19:28N 53°51' E 008°43'0 0.0
2017-Feb-07 18:28N 53°51' E 008°43'0 0.0
2017-Feb-07 17:28N 53°51' E 008°43'0 0.0
2017-Feb-07 15:18N 53°51' E 008°43'0 0.0
2017-Feb-07 13:24N 53°51' E 008°43'0 0.0
2017-Feb-07 12:30N 53°51' E 008°43'0 0.0
2017-Feb-07 11:28N 53°51' E 008°43'0 0.0
2017-Feb-07 10:24N 53°51' E 008°43'0 0.0
2017-Feb-07 09:04N 53°51' E 008°43'0 0.0
2017-Feb-07 08:30N 53°51' E 008°43'0 0.0
2017-Feb-07 07:30N 53°51' E 008°43'0 0.0
2017-Feb-07 06:30N 53°51' E 008°43'0 0.0
2017-Feb-07 05:28N 53°51' E 008°43'0 0.0
2017-Feb-07 04:18N 53°51' E 008°43'0 0.0
2017-Feb-07 03:30N 53°51' E 008°43'0 0.0
2017-Feb-07 02:30N 53°51' E 008°43'0 0.0
2017-Feb-07 01:30N 53°51' E 008°43'0 0.0
2017-Feb-07 00:30N 53°51' E 008°43'0 0.0
2017-Feb-06 23:30N 53°51' E 008°43'0 0.0
2017-Feb-06 22:28N 53°51' E 008°43'0 0.0
2017-Feb-06 21:18N 53°51' E 008°43'0 0.0
2017-Feb-06 20:24N 53°51' E 008°43'0 0.0
2017-Feb-06 19:28N 53°51' E 008°43'0 0.0
2017-Feb-06 16:28N 53°51' E 008°43'0 0.0
2017-Feb-06 15:18N 53°51' E 008°43'0 0.0
2017-Feb-06 14:16N 53°51' E 008°43'0 0.0
2017-Feb-06 13:28N 53°51' E 008°43'0 0.0
2017-Feb-06 12:18N 53°51' E 008°43'0 0.0
2017-Feb-06 11:28N 53°51' E 008°43'0 0.0
2017-Feb-06 10:16N 53°51' E 008°43'0 0.0
2017-Feb-06 09:28N 53°51' E 008°43'0 0.0
2017-Feb-06 08:30N 53°51' E 008°43'0 0.0
2017-Feb-06 07:28N 53°51' E 008°43'0 0.0
2017-Feb-06 06:28N 53°51' E 008°43'0 0.0
2017-Feb-06 01:30N 53°51' E 008°43'0 0.0
2017-Feb-05 22:28N 53°51' E 008°43'0 0.0
2017-Feb-05 21:30N 53°51' E 008°43'0 0.0
2017-Feb-05 18:18N 53°51' E 008°43'0 0.0
2017-Feb-05 16:30N 53°51' E 008°43'0 0.0
2017-Feb-05 15:18N 53°51' E 008°43'0 0.0
2017-Feb-05 14:30N 53°51' E 008°43'0 0.0
2017-Feb-05 13:24N 53°51' E 008°43'0 0.0
2017-Feb-05 12:30N 53°51' E 008°43'0 0.0
2017-Feb-05 11:18N 53°51' E 008°43'0 0.0
2017-Feb-05 10:24N 53°51' E 008°43'0 0.0
2017-Feb-05 09:12N 53°51' E 008°43'0 0.0
2017-Feb-05 08:30N 53°51' E 008°43'  
Track history (hours):
 
Tides and Currents Weather Stations Pressure Air Temp Water Temp Dewpoint Dewpoint Depression Visibility Wind Speed Wind Dir Waves Ship Positions

Frem Nordica

Last reported at 2017-Feb-15 08:24 UTC. Time now 2017-Feb-24 06:01 UTC.
Position N 53°53' E 014°17'.
Warning: this ship's position is 8 days out of date.

Length 79 m; draft 2.7 m.

Type: Ship. MMSI: 220439000.

Date/timePositionNaut miles runAvg speedWind from/ knotsBaromVisibWave heightAir tempDewpointWater temp
2017-Feb-15 08:24N 53°53' E 014°17'47 1.1
2017-Feb-13 12:25N 54°36' E 013°42'8 9.2
2017-Feb-13 11:30N 54°42' E 013°34'10 8.8
2017-Feb-13 10:23N 54°44' E 013°17'8 9.1
2017-Feb-13 09:27N 54°44' E 013°02'8 9.0
2017-Feb-13 08:33N 54°45' E 012°48'9 8.8
2017-Feb-13 07:33N 54°41' E 012°35'12 8.7
2017-Feb-13 06:07N 54°33' E 012°18'5 8.9
2017-Feb-13 05:33N 54°28' E 012°15'8 7.9
2017-Feb-13 04:33N 54°24' E 012°04'9 8.7
2017-Feb-13 03:33N 54°25' E 011°49'11 8.6
2017-Feb-13 02:14N 54°29' E 011°31'4 5.3
2017-Feb-13 01:33N 54°31' E 011°25'7 7.5
2017-Feb-13 00:33N 54°34' E 011°14'8 7.6
2017-Feb-12 23:33N 54°35' E 011°01'7 7.4
2017-Feb-12 22:33N 54°35' E 010°48'62 6.2
2017-Feb-12 12:33N 54°01' E 009°18'7 7.4
2017-Feb-12 11:33N 53°55' E 009°11'2 1.9
2017-Feb-12 10:34N 53°53' E 009°09'6 6.1
2017-Feb-12 09:34N 53°51' E 008°59'7 6.9
2017-Feb-12 08:33N 53°50' E 008°47'3 3.3
2017-Feb-12 07:33N 53°52' E 008°43'1 0.0
2017-Feb-11 09:33N 53°51' E 008°43'0 0.0
2017-Feb-10 20:08N 53°51' E 008°43'0 0.0
2017-Feb-10 09:14N 53°51' E 008°43'0 0.0
2017-Feb-10 07:32N 53°51' E 008°43'0 0.0
2017-Feb-09 19:10N 53°51' E 008°43'0 0.0
2017-Feb-09 18:32N 53°51' E 008°43'0 0.0
2017-Feb-09 16:32N 53°51' E 008°43'0 0.0
2017-Feb-09 15:26N 53°51' E 008°43'0 0.0
2017-Feb-09 07:14N 53°51' E 008°43'0 0.0
2017-Feb-09 06:20N 53°51' E 008°43'0 0.0
2017-Feb-09 00:03N 53°51' E 008°43'0 0.0
2017-Feb-08 21:33N 53°51' E 008°43'0 0.0
2017-Feb-08 17:21N 53°51' E 008°43'0 0.0
2017-Feb-08 16:09N 53°51' E 008°43'0 0.0
2017-Feb-08 14:27N 53°51' E 008°43'0 0.0
2017-Feb-08 13:28N 53°51' E 008°43'0 0.0
2017-Feb-08 11:33N 53°51' E 008°43'0 0.0
2017-Feb-08 10:33N 53°51' E 008°43'0 0.0
2017-Feb-08 09:28N 53°51' E 008°43'0 0.0
2017-Feb-08 08:03N 53°51' E 008°43'0 0.0
2017-Feb-08 07:10N 53°51' E 008°43'0 0.0
2017-Feb-08 06:22N 53°51' E 008°43'0 0.0
2017-Feb-08 05:23N 53°51' E 008°43'0 0.0
2017-Feb-08 04:17N 53°51' E 008°43'0 0.0
2017-Feb-08 03:16N 53°51' E 008°43'0 0.0
2017-Feb-08 02:17N 53°51' E 008°43'0 0.0
2017-Feb-08 01:16N 53°51' E 008°43'0 0.0
2017-Feb-08 00:29N 53°51' E 008°43'0 0.0
2017-Feb-07 23:28N 53°51' E 008°43'0 0.0
2017-Feb-07 22:30N 53°51' E 008°43'0 0.0
2017-Feb-07 21:28N 53°51' E 008°43'0 0.0
2017-Feb-07 20:30N 53°51' E 008°43'0 0.0
2017-Feb-07 19:28N 53°51' E 008°43'0 0.0
2017-Feb-07 18:28N 53°51' E 008°43'0 0.0
2017-Feb-07 17:28N 53°51' E 008°43'0 0.0
2017-Feb-07 15:18N 53°51' E 008°43'0 0.0
2017-Feb-07 13:24N 53°51' E 008°43'0 0.0
2017-Feb-07 12:30N 53°51' E 008°43'0 0.0
2017-Feb-07 11:28N 53°51' E 008°43'0 0.0
2017-Feb-07 10:24N 53°51' E 008°43'0 0.0
2017-Feb-07 09:04N 53°51' E 008°43'0 0.0
2017-Feb-07 08:30N 53°51' E 008°43'0 0.0
2017-Feb-07 07:30N 53°51' E 008°43'0 0.0
2017-Feb-07 06:30N 53°51' E 008°43'0 0.0
2017-Feb-07 05:28N 53°51' E 008°43'0 0.0
2017-Feb-07 04:18N 53°51' E 008°43'0 0.0
2017-Feb-07 03:30N 53°51' E 008°43'0 0.0
2017-Feb-07 02:30N 53°51' E 008°43'0 0.0
2017-Feb-07 01:30N 53°51' E 008°43'0 0.0
2017-Feb-07 00:30N 53°51' E 008°43'0 0.0
2017-Feb-06 23:30N 53°51' E 008°43'0 0.0
2017-Feb-06 22:28N 53°51' E 008°43'0 0.0
2017-Feb-06 21:18N 53°51' E 008°43'0 0.0
2017-Feb-06 20:24N 53°51' E 008°43'0 0.0
2017-Feb-06 19:28N 53°51' E 008°43'0 0.0
2017-Feb-06 16:28N 53°51' E 008°43'0 0.0
2017-Feb-06 15:18N 53°51' E 008°43'0 0.0
2017-Feb-06 14:16N 53°51' E 008°43'0 0.0
2017-Feb-06 13:28N 53°51' E 008°43'0 0.0
2017-Feb-06 12:18N 53°51' E 008°43'0 0.0
2017-Feb-06 11:28N 53°51' E 008°43'0 0.0
2017-Feb-06 10:16N 53°51' E 008°43'0 0.0
2017-Feb-06 09:28N 53°51' E 008°43'0 0.0
2017-Feb-06 08:30N 53°51' E 008°43'0 0.0
2017-Feb-06 07:28N 53°51' E 008°43'0 0.0
2017-Feb-06 06:28N 53°51' E 008°43'0 0.0
2017-Feb-06 01:30N 53°51' E 008°43'0 0.0
2017-Feb-05 22:28N 53°51' E 008°43'0 0.0
2017-Feb-05 21:30N 53°51' E 008°43'0 0.0
2017-Feb-05 18:18N 53°51' E 008°43'0 0.0
2017-Feb-05 16:30N 53°51' E 008°43'0 0.0
2017-Feb-05 15:18N 53°51' E 008°43'0 0.0
2017-Feb-05 14:30N 53°51' E 008°43'0 0.0
2017-Feb-05 13:24N 53°51' E 008°43'0 0.0
2017-Feb-05 12:30N 53°51' E 008°43'0 0.0
2017-Feb-05 11:18N 53°51' E 008°43'0 0.0
2017-Feb-05 10:24N 53°51' E 008°43'0 0.0
2017-Feb-05 09:12N 53°51' E 008°43'0 0.0
2017-Feb-05 08:30N 53°51' E 008°43'  

Dump ship's entire track history